Time;durP1;ratioP1;P1;durP2;ratioP2;P2;SDS_P1;SDS_P2;PMS_P1;PMS_P2;Temp;Humidity;BMP_temperature;BMP_pressure;BME280_temperature;BME280_humidity;BME280_pressure;Samples;Min_cycle;Max_cycle;Signal;HPM_P1;HPM_P2
2022/04/15 00:02:05;;;;;;;3.40;2.03;;;17.00;61.00;;;;;;5049107;28;20080;-69
2022/04/15 00:04:32;;;;;;;3.40;2.47;;;16.70;60.90;;;;;;5051612;28;20048;-70
2022/04/15 00:06:59;;;;;;;3.17;2.10;;;16.80;60.90;;;;;;5051598;28;20049;-69
2022/04/15 00:09:25;;;;;;;3.28;2.10;;;16.90;60.80;;;;;;5051306;28;20057;-70
2022/04/15 00:11:53;;;;;;;3.47;1.95;;;17.80;61.10;;;;;;5051871;28;20424;-71
2022/04/15 00:14:20;;;;;;;3.97;2.25;;;17.20;60.90;;;;;;5051812;28;20490;-71
2022/04/15 00:16:47;;;;;;;4.82;2.00;;;16.90;60.70;;;;;;5050253;28;20404;-71
2022/04/15 00:19:15;;;;;;;2.97;2.05;;;17.00;57.80;;;;;;5046720;28;20058;-70
2022/04/15 00:21:43;;;;;;;2.83;1.92;;;16.30;60.50;;;;;;5030364;28;20379;-70
2022/04/15 00:24:09;;;;;;;2.45;1.95;;;17.10;61.20;;;;;;5035491;28;20575;-71
2022/04/15 00:26:36;;;;;;;2.80;2.00;;;17.00;56.00;;;;;;5034328;28;20049;-71
2022/04/15 00:29:05;;;;;;;2.70;2.00;;;17.10;60.90;;;;;;5035376;28;20049;-71
2022/04/15 00:31:32;;;;;;;3.63;1.88;;;16.90;55.60;;;;;;5034882;28;20049;-70
2022/04/15 00:33:59;;;;;;;2.95;1.60;;;16.80;61.00;;;;;;5035318;28;20053;-71
2022/04/15 00:36:27;;;;;;;3.47;2.00;;;16.90;61.10;;;;;;5045050;28;20059;-71
2022/04/15 00:38:54;;;;;;;2.63;2.05;;;17.40;61.60;;;;;;5054230;28;20056;-71
2022/04/15 00:41:20;;;;;;;2.72;1.92;;;17.10;61.20;;;;;;5054123;28;20071;-71
2022/04/15 00:43:47;;;;;;;3.38;1.90;;;17.00;60.80;;;;;;5053564;28;20055;-71
2022/04/15 00:46:14;;;;;;;3.03;1.85;;;17.00;60.90;;;;;;5054285;28;20059;-71
2022/04/15 00:48:40;;;;;;;3.20;1.80;;;15.90;60.50;;;;;;5053961;28;20418;-71
2022/04/15 00:51:07;;;;;;;2.72;1.70;;;17.00;61.10;;;;;;5055035;28;20063;-71
2022/04/15 00:53:35;;;;;;;2.80;1.80;;;17.20;60.90;;;;;;5052168;28;20067;-71
2022/04/15 00:56:03;;;;;;;2.20;1.65;;;17.10;61.20;;;;;;5054917;28;20075;-71
2022/04/15 00:58:31;;;;;;;4.05;1.90;;;16.90;61.00;;;;;;5054615;28;20433;-71
2022/04/15 01:00:58;;;;;;;3.58;2.05;;;17.10;61.00;;;;;;5054566;28;20055;-71
2022/04/15 01:03:25;;;;;;;2.42;1.70;;;;;;;;;;5054691;28;20102;-70
2022/04/15 01:05:55;;;;;;;2.92;1.65;;;16.60;60.50;;;;;;5054893;28;20051;-71
2022/04/15 01:08:23;;;;;;;2.58;1.70;;;17.50;61.50;;;;;;5054747;28;20049;-71
2022/04/15 01:10:52;;;;;;;3.03;1.92;;;16.90;61.00;;;;;;5019491;28;20502;-71
2022/04/15 01:13:20;;;;;;;3.00;2.00;;;;;;;;;;5034868;28;20072;-70
2022/04/15 01:15:46;;;;;;;4.50;1.90;;;17.10;61.00;;;;;;5033314;28;20049;-71
2022/04/15 01:18:13;;;;;;;2.78;1.70;;;;;;;;;;5034693;28;20052;-70
2022/04/15 01:20:40;;;;;;;2.72;1.60;;;16.90;60.90;;;;;;5034342;28;20056;-71
2022/04/15 01:23:09;;;;;;;2.70;1.67;;;16.90;55.20;;;;;;5034182;28;20128;-70
2022/04/15 01:25:36;;;;;;;3.47;1.83;;;17.10;56.30;;;;;;5035432;28;20128;-71
2022/04/15 01:28:02;;;;;;;2.50;1.80;;;16.50;60.80;;;;;;5052903;28;20402;-71
2022/04/15 01:30:29;;;;;;;2.72;1.67;;;;;;;;;;5052927;28;20059;-70
2022/04/15 01:32:57;;;;;;;2.70;1.70;;;16.20;60.60;;;;;;5054074;28;20098;-70
2022/04/15 01:35:24;;;;;;;2.47;1.75;;;17.70;61.20;;;;;;5053097;28;20409;-71
2022/04/15 01:37:51;;;;;;;2.67;1.90;;;15.90;60.50;;;;;;5052955;28;20048;-71
2022/04/15 01:40:19;;;;;;;2.40;1.73;;;16.90;60.90;;;;;;5052548;28;20453;-70
2022/04/15 01:42:46;;;;;;;2.38;1.55;;;17.70;61.40;;;;;;5052417;28;20049;-70
2022/04/15 01:45:13;;;;;;;2.88;1.80;;;17.50;61.10;;;;;;5053646;28;20041;-71
2022/04/15 01:47:40;;;;;;;2.40;1.77;;;16.80;60.70;;;;;;5052970;28;20059;-69
2022/04/15 01:50:08;;;;;;;1.73;1.42;;;16.90;60.70;;;;;;5053658;28;20401;-71
2022/04/15 01:52:34;;;;;;;2.35;1.40;;;16.80;60.60;;;;;;5052691;28;20059;-70
2022/04/15 01:55:01;;;;;;;2.67;1.58;;;16.70;60.60;;;;;;5053732;28;20045;-71
2022/04/15 01:57:29;;;;;;;2.30;1.58;;;16.70;60.80;;;;;;5053801;28;20045;-71
2022/04/15 01:59:56;;;;;;;1.90;1.60;;;17.00;60.90;;;;;;5048939;28;20072;-71
2022/04/15 02:02:22;;;;;;;2.63;1.58;;;16.80;60.70;;;;;;5052251;28;20417;-71
2022/04/15 02:04:49;;;;;;;2.10;1.60;;;17.00;60.80;;;;;;5052349;28;20053;-71
2022/04/15 02:07:16;;;;;;;2.28;1.40;;;16.90;61.10;;;;;;5052466;28;20535;-70
2022/04/15 02:09:43;;;;;;;2.28;1.70;;;17.00;60.80;;;;;;5053212;28;20049;-71
2022/04/15 02:12:10;;;;;;;2.88;1.80;;;17.10;60.90;;;;;;5053499;28;20048;-71
2022/04/15 02:14:38;;;;;;;1.92;1.60;;;16.80;60.80;;;;;;5052476;28;20409;-71
2022/04/15 02:17:05;;;;;;;3.75;2.03;;;16.90;61.20;;;;;;5050612;28;20061;-71
2022/04/15 02:19:32;;;;;;;2.17;1.80;;;16.80;60.80;;;;;;5052267;28;20070;-71
2022/04/15 02:21:59;;;;;;;1.70;1.48;;;16.70;60.70;;;;;;5052369;28;20048;-71
2022/04/15 02:24:26;;;;;;;1.85;1.40;;;16.90;61.00;;;;;;5051958;28;20053;-71
2022/04/15 02:26:52;;;;;;;2.65;1.50;;;16.70;60.90;;;;;;5051963;28;20044;-71
2022/04/15 02:29:19;;;;;;;2.03;1.50;;;16.90;60.90;;;;;;5051987;28;20063;-71
2022/04/15 02:31:47;;;;;;;2.53;1.50;;;17.70;61.30;;;;;;5051760;28;20416;-71
2022/04/15 02:34:14;;;;;;;3.67;1.70;;;16.70;60.60;;;;;;5051267;28;20041;-71
2022/04/15 02:36:41;;;;;;;1.67;1.50;;;16.80;60.80;;;;;;5051577;28;20048;-71
2022/04/15 02:39:10;;;;;;;2.80;2.00;;;15.80;60.20;;;;;;5052031;28;20063;-71
2022/04/15 02:41:37;;;;;;;1.83;1.50;;;16.70;60.90;;;;;;5051744;28;20040;-71
2022/04/15 02:44:04;;;;;;;1.80;1.48;;;16.10;60.60;;;;;;5051496;28;20411;-71
2022/04/15 02:46:30;;;;;;;1.83;1.40;;;16.20;60.20;;;;;;5052409;28;20063;-71
2022/04/15 02:48:58;;;;;;;1.85;1.45;;;16.60;60.70;;;;;;5051729;28;20055;-71
2022/04/15 02:51:25;;;;;;;2.80;1.77;;;16.90;60.80;;;;;;5049750;28;20462;-71
2022/04/15 02:53:52;;;;;;;2.28;1.52;;;17.60;60.30;;;;;;5051591;28;20056;-71
2022/04/15 02:56:19;;;;;;;2.47;1.73;;;17.40;61.10;;;;;;5051716;28;20063;-71
2022/04/15 02:58:46;;;;;;;2.13;1.48;;;16.90;60.70;;;;;;5051094;28;20053;-71
2022/04/15 03:01:12;;;;;;;1.55;1.40;;;17.00;61.20;;;;;;5051270;28;20052;-71
2022/04/15 03:03:39;;;;;;;2.40;1.60;;;16.70;60.90;;;;;;5052411;28;20045;-71
2022/04/15 03:06:07;;;;;;;2.80;1.55;;;16.30;60.20;;;;;;5049838;28;20049;-70
2022/04/15 03:08:34;;;;;;;2.25;1.67;;;16.10;60.10;;;;;;5050915;28;20048;-70
2022/04/15 03:11:01;;;;;;;2.13;1.50;;;17.10;60.70;;;;;;5050749;28;20048;-71
2022/04/15 03:13:28;;;;;;;3.50;1.70;;;16.80;60.60;;;;;;5051231;28;20053;-71
2022/04/15 03:15:55;;;;;;;2.78;1.75;;;16.70;60.50;;;;;;5051366;28;20501;-71
2022/04/15 03:18:21;;;;;;;3.22;2.05;;;16.90;60.60;;;;;;5051113;28;20392;-69
2022/04/15 03:20:48;;;;;;;3.28;1.80;;;16.90;60.80;;;;;;5052219;28;20060;-71
2022/04/15 03:23:16;;;;;;;1.50;1.40;;;17.30;61.00;;;;;;5041847;28;20050;-69
2022/04/15 03:25:43;;;;;;;2.08;1.50;;;16.90;61.30;;;;;;5032358;28;20056;-69
2022/04/15 03:28:10;;;;;;;2.17;1.70;;;16.50;60.60;;;;;;5030848;28;20060;-69
2022/04/15 03:30:36;;;;;;;3.30;1.70;;;17.00;61.00;;;;;;5030810;28;20060;-70
2022/04/15 03:33:03;;;;;;;2.45;1.70;;;17.60;61.00;;;;;;5030963;28;20053;-69
2022/04/15 03:35:30;;;;;;;2.28;1.60;;;16.80;60.60;;;;;;5032334;28;20067;-69
2022/04/15 03:37:56;;;;;;;1.98;1.50;;;17.20;60.80;;;;;;5032068;28;20417;-70
2022/04/15 03:40:25;;;;;;;2.22;1.77;;;17.10;60.80;;;;;;5031607;28;20058;-70
2022/04/15 03:42:53;;;;;;;2.15;1.50;;;17.40;61.10;;;;;;5032031;28;20406;-69
2022/04/15 03:45:22;;;;;;;2.00;1.40;;;16.70;60.60;;;;;;5030896;28;20049;-69
2022/04/15 03:47:49;;;;;;;2.10;1.55;;;16.80;60.70;;;;;;5030560;28;20049;-69
2022/04/15 03:50:16;;;;;;;2.63;1.52;;;16.90;60.50;;;;;;5030653;28;20508;-69
2022/04/15 03:52:45;;;;;;;2.22;1.55;;;16.80;60.60;;;;;;5030540;28;20049;-69
2022/04/15 03:55:13;;;;;;;2.05;1.58;;;16.10;60.10;;;;;;5031995;28;20045;-69
2022/04/15 03:57:41;;;;;;;2.70;1.40;;;16.80;60.70;;;;;;5032324;28;20391;-69
2022/04/15 04:00:10;;;;;;;2.15;1.50;;;16.80;60.60;;;;;;5030590;28;20057;-69
2022/04/15 04:02:37;;;;;;;1.52;1.30;;;17.00;60.60;;;;;;5030629;28;20058;-69
2022/04/15 04:05:04;;;;;;;2.97;1.48;;;16.90;60.80;;;;;;5030574;28;20062;-69
2022/04/15 04:07:31;;;;;;;1.73;1.40;;;16.80;60.90;;;;;;5031778;28;20155;-69
2022/04/15 04:09:58;;;;;;;2.45;1.50;;;16.80;60.50;;;;;;5030468;28;20056;-69
2022/04/15 04:12:24;;;;;;;1.90;1.50;;;17.40;61.10;;;;;;5031547;28;20052;-69
2022/04/15 04:14:52;;;;;;;2.13;1.50;;;16.70;60.70;;;;;;5049216;28;20053;-69
2022/04/15 04:17:19;;;;;;;3.55;1.60;;;16.00;60.20;;;;;;5051832;28;20358;-69
2022/04/15 04:19:46;;;;;;;3.20;1.90;;;;;;;;;;5051297;28;20056;-69
2022/04/15 04:22:13;;;;;;;1.52;1.40;;;15.90;60.30;;;;;;5050609;28;20060;-69
2022/04/15 04:24:40;;;;;;;1.65;1.30;;;16.80;60.40;;;;;;5050107;28;20049;-69
2022/04/15 04:27:06;;;;;;;2.15;1.52;;;16.70;60.50;;;;;;5051300;28;20055;-69
2022/04/15 04:29:33;;;;;;;1.77;1.23;;;16.70;60.60;;;;;;5049688;28;20068;-69
2022/04/15 04:32:01;;;;;;;2.50;1.40;;;16.70;54.80;;;;;;5048296;28;20049;-70
2022/04/15 04:34:28;;;;;;;2.00;1.50;;;;;;;;;;5038284;28;20402;-70
2022/04/15 04:36:55;;;;;;;2.25;1.30;;;16.90;60.50;;;;;;5051263;28;20518;-69
2022/04/15 04:39:25;;;;;;;1.67;1.40;;;16.80;60.60;;;;;;5051380;28;20045;-69
2022/04/15 04:41:52;;;;;;;2.15;1.40;;;16.80;60.30;;;;;;5050075;28;20057;-70
2022/04/15 04:44:19;;;;;;;2.25;1.45;;;16.20;60.20;;;;;;5051339;28;20478;-69
2022/04/15 04:46:45;;;;;;;1.77;1.30;;;16.60;60.40;;;;;;5049593;28;20049;-69
2022/04/15 04:49:13;;;;;;;1.92;1.70;;;16.80;60.40;;;;;;5050322;28;20049;-69
2022/04/15 04:51:40;;;;;;;1.42;1.33;;;16.70;60.40;;;;;;5049717;28;20045;-67
2022/04/15 04:54:07;;;;;;;1.92;1.30;;;16.20;60.30;;;;;;5051191;28;20075;-68
2022/04/15 04:56:34;;;;;;;1.95;1.33;;;16.70;60.30;;;;;;5050218;28;20049;-67
2022/04/15 04:59:00;;;;;;;2.00;1.40;;;16.80;60.10;;;;;;5048147;28;20428;-68
2022/04/15 05:01:27;;;;;;;2.13;1.45;;;17.10;60.50;;;;;;5066563;28;20044;-68
2022/04/15 05:03:54;;;;;;;1.67;1.35;;;16.80;60.60;;;;;;5054239;28;20037;-67
2022/04/15 05:06:22;;;;;;;1.98;1.45;;;16.90;60.50;;;;;;5060331;28;20057;-67
2022/04/15 05:08:48;;;;;;;2.33;1.50;;;17.60;60.80;;;;;;5059717;28;20382;-67
2022/04/15 05:11:15;;;;;;;1.95;1.40;;;16.80;60.30;;;;;;5063030;28;20135;-67
2022/04/15 05:13:42;;;;;;;2.15;1.50;;;16.80;60.30;;;;;;5063150;28;20055;-68
2022/04/15 05:16:08;;;;;;;2.38;1.70;;;16.80;60.40;;;;;;5069489;28;20044;-67
2022/04/15 05:18:35;;;;;;;1.48;1.30;;;;;;;;;;5061385;28;20052;-68
2022/04/15 05:21:02;;;;;;;1.35;1.25;;;16.60;60.30;;;;;;5056832;28;20053;-67
2022/04/15 05:23:30;;;;;;;1.63;1.33;;;16.20;60.10;;;;;;5062363;28;20047;-67
2022/04/15 05:25:57;;;;;;;1.73;1.30;;;16.90;60.50;;;;;;5062477;28;20494;-67
2022/04/15 05:28:24;;;;;;;1.60;1.48;;;;;;;;;;5068534;28;20067;-67
2022/04/15 05:30:51;;;;;;;2.47;1.40;;;16.80;60.30;;;;;;5062275;28;20075;-67
2022/04/15 05:33:17;;;;;;;1.70;1.27;;;15.70;59.50;;;;;;5067920;28;20061;-67
2022/04/15 05:35:44;;;;;;;2.28;1.40;;;16.70;60.00;;;;;;5061224;28;20053;-67
2022/04/15 05:38:11;;;;;;;2.10;1.20;;;16.70;60.10;;;;;;5061566;28;20507;-67
2022/04/15 05:40:39;;;;;;;1.70;1.48;;;16.70;60.50;;;;;;5062003;28;20059;-67
2022/04/15 05:43:05;;;;;;;2.30;1.40;;;16.00;59.90;;;;;;5062594;28;20129;-67
2022/04/15 05:45:32;;;;;;;1.75;1.20;;;16.60;60.00;;;;;;5068096;28;20059;-68
2022/04/15 05:47:59;;;;;;;1.48;1.27;;;16.70;60.20;;;;;;5060723;28;20057;-68
2022/04/15 05:50:26;;;;;;;2.08;1.50;;;16.70;60.20;;;;;;5067582;28;20053;-69
2022/04/15 05:52:52;;;;;;;1.50;1.40;;;16.80;60.40;;;;;;5060518;28;20049;-69
2022/04/15 05:55:19;;;;;;;1.80;1.45;;;16.50;60.20;;;;;;5067546;28;20058;-69
2022/04/15 05:57:47;;;;;;;2.00;1.30;;;16.10;59.80;;;;;;5054423;28;20051;-69
2022/04/15 06:00:14;;;;;;;2.05;1.42;;;16.60;60.40;;;;;;5066592;28;20420;-69
2022/04/15 06:02:41;;;;;;;2.53;1.40;;;17.40;60.00;;;;;;5060670;28;20047;-69
2022/04/15 06:05:08;;;;;;;2.03;1.30;;;16.60;60.20;;;;;;5062168;28;20497;-69
2022/04/15 06:07:35;;;;;;;1.90;1.33;;;16.90;60.10;;;;;;5062373;28;20150;-69
2022/04/15 06:10:02;;;;;;;1.77;1.38;;;16.60;60.20;;;;;;5063172;28;20044;-70
2022/04/15 06:12:54;;;;;;;4.05;1.70;;;16.00;54.60;;;;;;5073541;28;20071;-69
2022/04/15 06:15:23;;;;;;;1.85;1.52;;;16.70;54.90;;;;;;5052599;28;20045;-69
2022/04/15 06:17:50;;;;;;;1.98;1.40;;;16.80;60.10;;;;;;5043865;28;20045;-70
2022/04/15 06:20:17;;;;;;;2.38;1.50;;;16.80;60.20;;;;;;5042783;28;20056;-71
2022/04/15 06:22:43;;;;;;;2.13;1.42;;;16.80;60.20;;;;;;5042693;28;20052;-71
2022/04/15 06:25:10;;;;;;;1.33;1.23;;;16.70;60.20;;;;;;5042664;28;20055;-71
2022/04/15 06:27:38;;;;;;;2.85;1.60;;;;;;;;;;5045857;28;20059;-70
2022/04/15 06:30:07;;;;;;;2.45;1.40;;;16.80;60.00;;;;;;5051834;28;20053;-71
2022/04/15 06:32:35;;;;;;;1.30;1.20;;;16.90;59.90;;;;;;5035192;28;20056;-71
2022/04/15 06:35:02;;;;;;;2.70;1.50;;;16.90;60.20;;;;;;5031996;28;20049;-71
2022/04/15 06:37:29;;;;;;;2.33;1.40;;;16.90;60.20;;;;;;5042438;28;20055;-71
2022/04/15 06:39:55;;;;;;;3.88;1.50;;;16.80;60.20;;;;;;5039705;28;20045;-71
2022/04/15 06:42:22;;;;;;;2.00;1.48;;;16.40;60.10;;;;;;5047668;28;20497;-71
2022/04/15 06:44:49;;;;;;;3.05;1.60;;;16.90;60.40;;;;;;5050048;28;20049;-71
2022/04/15 06:47:16;;;;;;;6.28;1.60;;;16.90;60.60;;;;;;5050226;28;20057;-71
2022/04/15 06:49:45;;;;;;;2.90;1.70;;;16.10;60.00;;;;;;5052257;28;20132;-71
2022/04/15 06:52:12;;;;;;;4.22;1.80;;;;;;;;;;5052922;28;20122;-69
2022/04/15 06:54:39;;;;;;;3.78;1.60;;;16.90;60.50;;;;;;5052696;28;20128;-71
2022/04/15 06:57:06;;;;;;;3.70;1.63;;;17.10;60.50;;;;;;5045415;28;20061;-71
2022/04/15 06:59:32;;;;;;;2.35;1.55;;;16.90;60.50;;;;;;5039596;28;20053;-69
2022/04/15 07:02:01;;;;;;;3.72;1.80;;;16.80;60.30;;;;;;5032901;28;20240;-69
2022/04/15 07:04:28;;;;;;;3.08;2.00;;;17.50;60.50;;;;;;5033915;28;20461;-69
2022/04/15 07:06:56;;;;;;;2.83;1.98;;;16.30;60.10;;;;;;5051374;28;20056;-69
2022/04/15 07:09:22;;;;;;;4.22;1.70;;;16.40;60.10;;;;;;5052589;28;20049;-72
2022/04/15 07:11:49;;;;;;;3.17;1.75;;;17.20;60.30;;;;;;5052393;28;20135;-67
2022/04/15 07:14:16;;;;;;;4.53;2.00;;;16.90;60.60;;;;;;5052254;28;20048;-68
2022/04/15 07:16:43;;;;;;;3.63;1.83;;;17.00;60.60;;;;;;5045260;28;20072;-69
2022/04/15 07:19:10;;;;;;;2.60;1.70;;;16.10;60.10;;;;;;5042479;28;20044;-68
2022/04/15 07:21:37;;;;;;;2.92;1.65;;;16.90;60.60;;;;;;5041826;28;20045;-69
2022/04/15 07:24:06;;;;;;;2.92;1.73;;;17.00;60.60;;;;;;5041180;28;20059;-68
2022/04/15 07:26:33;;;;;;;3.95;1.90;;;17.00;60.60;;;;;;5040412;28;20056;-68
2022/04/15 07:29:00;;;;;;;4.15;1.88;;;17.00;60.50;;;;;;5039793;28;20049;-68
2022/04/15 07:31:27;;;;;;;3.38;1.90;;;;;;;;;;5042949;28;20407;-69
2022/04/15 07:33:54;;;;;;;3.92;2.00;;;17.00;60.50;;;;;;5040174;28;20100;-68
2022/04/15 07:36:43;;;;;;;4.97;2.17;;;16.90;62.00;;;;;;5042494;28;20494;-70
2022/04/15 07:39:12;;;;;;;3.28;1.85;;;16.00;60.10;;;;;;5037512;28;20092;-69
2022/04/15 07:41:39;;;;;;;3.42;1.92;;;;;;;;;;5040913;28;20049;-70
2022/04/15 07:44:06;;;;;;;3.20;2.10;;;17.30;60.50;;;;;;5040766;28;20060;-68
2022/04/15 07:46:33;;;;;;;3.20;1.90;;;17.70;60.90;;;;;;5041743;28;20139;-68
2022/04/15 07:49:00;;;;;;;4.22;2.10;;;16.10;60.10;;;;;;5041408;28;20494;-69
2022/04/15 07:51:27;;;;;;;3.40;2.10;;;16.90;60.30;;;;;;5037817;28;20052;-68
2022/04/15 07:53:53;;;;;;;3.35;2.10;;;16.90;60.50;;;;;;5041974;28;20469;-69
2022/04/15 07:56:21;;;;;;;5.53;2.33;;;16.60;60.30;;;;;;5038070;28;20055;-68
2022/04/15 07:58:50;;;;;;;3.28;2.22;;;16.80;60.30;;;;;;5041603;28;20049;-68
2022/04/15 08:01:17;;;;;;;4.22;2.40;;;16.50;60.40;;;;;;5040977;28;20461;-70
2022/04/15 08:03:44;;;;;;;5.28;2.78;;;16.90;60.40;;;;;;5040771;28;20095;-70
2022/04/15 08:06:11;;;;;;;3.08;1.92;;;16.00;59.80;;;;;;5041218;28;20052;-71
2022/04/15 08:08:38;;;;;;;2.72;1.90;;;16.80;60.30;;;;;;5041194;28;20065;-71
2022/04/15 08:11:04;;;;;;;3.22;2.00;;;16.50;60.30;;;;;;5039698;28;20056;-71
2022/04/15 08:13:33;;;;;;;3.50;1.90;;;16.90;60.30;;;;;;5041849;28;20045;-71
2022/04/15 08:15:59;;;;;;;3.08;2.15;;;17.00;60.60;;;;;;5040946;28;20056;-71
2022/04/15 08:18:26;;;;;;;3.55;2.00;;;16.40;56.50;;;;;;5040902;28;20042;-69
2022/04/15 08:20:55;;;;;;;3.78;1.90;;;16.10;59.90;;;;;;5038675;28;20413;-69
2022/04/15 08:23:22;;;;;;;4.35;1.90;;;16.40;60.00;;;;;;5038536;28;20048;-69
2022/04/15 08:25:48;;;;;;;3.33;1.90;;;16.40;56.50;;;;;;5045496;28;20063;-68
2022/04/15 08:28:15;;;;;;;3.03;1.70;;;16.40;59.80;;;;;;5050240;28;20063;-67
2022/04/15 08:30:43;;;;;;;3.42;2.10;;;17.10;60.30;;;;;;5051027;28;20049;-67
2022/04/15 08:33:10;;;;;;;3.83;2.00;;;16.80;59.90;;;;;;5051134;28;20052;-66
2022/04/15 08:35:37;;;;;;;3.78;2.05;;;16.90;58.00;;;;;;5051582;28;20060;-67
2022/04/15 08:38:04;;;;;;;3.35;1.95;;;17.00;60.40;;;;;;5051478;28;20051;-68
2022/04/15 08:40:32;;;;;;;3.63;1.75;;;17.60;60.50;;;;;;5051289;28;20051;-69
2022/04/15 08:43:00;;;;;;;4.65;2.30;;;17.00;60.00;;;;;;5051691;28;20048;-70
2022/04/15 08:45:27;;;;;;;3.22;1.80;;;16.80;60.10;;;;;;5054308;28;20053;-69
2022/04/15 08:47:57;;;;;;;4.55;2.10;;;16.40;60.00;;;;;;5035392;28;20057;-69
2022/04/15 08:50:24;;;;;;;3.33;1.85;;;16.20;59.70;;;;;;5033752;28;20058;-71
2022/04/15 08:52:51;;;;;;;4.93;2.00;;;16.90;59.90;;;;;;5035034;28;20050;-70
2022/04/15 08:55:21;;;;;;;4.50;2.00;;;16.70;59.90;;;;;;5035022;28;20395;-71
2022/04/15 08:57:47;;;;;;;4.05;1.80;;;16.50;60.00;;;;;;5035039;28;20549;-71
2022/04/15 09:00:15;;;;;;;3.58;1.83;;;16.40;59.70;;;;;;5040005;28;20055;-71
2022/04/15 09:02:42;;;;;;;2.97;1.80;;;16.20;59.70;;;;;;5044312;28;20045;-71
2022/04/15 09:05:10;;;;;;;3.47;1.85;;;16.80;60.00;;;;;;5042945;28;20459;-71
2022/04/15 09:07:37;;;;;;;3.92;1.80;;;17.00;59.90;;;;;;5043090;28;20049;-71
2022/04/15 09:10:05;;;;;;;3.92;1.95;;;16.80;60.10;;;;;;5038229;28;20057;-71
2022/04/15 09:12:35;;;;;;;3.35;2.20;;;17.20;59.90;;;;;;5042586;28;20037;-71
2022/04/15 09:15:11;;;;;;;3.75;2.13;;;17.20;59.90;;;;;;5043829;28;20080;-70
2022/04/15 09:17:38;;;;;;;3.72;2.08;;;17.00;54.20;;;;;;5036154;28;20069;-70
2022/04/15 09:20:06;;;;;;;4.30;1.98;;;17.00;60.00;;;;;;5040930;28;20075;-71
2022/04/15 09:22:34;;;;;;;2.67;1.92;;;17.10;60.00;;;;;;5046861;28;20119;-70
2022/04/15 09:25:01;;;;;;;3.70;1.98;;;17.10;60.10;;;;;;5043285;28;20120;-71
2022/04/15 09:27:28;;;;;;;4.13;1.90;;;17.00;60.10;;;;;;5043811;28;20060;-70
2022/04/15 09:29:55;;;;;;;2.72;1.90;;;17.10;56.80;;;;;;5043738;28;20500;-70
2022/04/15 09:32:23;;;;;;;1.88;1.58;;;17.00;54.20;;;;;;5042665;28;20052;-70
2022/04/15 09:34:53;;;;;;;2.47;1.70;;;16.90;60.00;;;;;;5041940;28;20080;-70
2022/04/15 09:37:20;;;;;;;2.50;1.80;;;17.20;60.30;;;;;;5045339;28;20452;-70
2022/04/15 09:40:05;;;;;;;3.28;1.80;;;16.40;59.70;;;;;;5049157;28;20075;-70
2022/04/15 09:42:33;;;;;;;2.97;1.83;;;16.90;60.00;;;;;;5033403;28;20065;-70
2022/04/15 09:45:11;;;;;;;3.30;1.90;;;17.00;60.10;;;;;;5033643;28;20145;-71
2022/04/15 09:47:38;;;;;;;3.88;1.85;;;16.90;60.00;;;;;;5034108;28;20136;-70
2022/04/15 09:50:06;;;;;;;2.40;1.77;;;16.30;57.20;;;;;;5032635;28;20060;-70
2022/04/15 09:52:33;;;;;;;3.60;1.90;;;17.60;60.00;;;;;;5040503;28;20050;-69
2022/04/15 09:55:01;;;;;;;2.83;2.08;;;16.30;59.60;;;;;;5049243;28;20071;-70
2022/04/15 09:57:33;;;;;;;2.30;1.80;;;16.90;59.90;;;;;;5052517;28;20063;-70
2022/04/15 10:00:02;;;;;;;2.95;1.98;;;17.00;59.60;;;;;;5052621;28;20118;-69
2022/04/15 10:02:29;;;;;;;7.65;2.30;;;16.20;56.00;;;;;;5052597;28;20049;-69
2022/04/15 10:04:56;;;;;;;2.58;1.98;;;16.20;59.00;;;;;;5039393;28;20050;-69
2022/04/15 10:07:22;;;;;;;7.53;1.75;;;17.00;59.60;;;;;;5047908;28;20490;-68
2022/04/15 10:09:49;;;;;;;2.55;1.85;;;16.90;59.90;;;;;;5052241;28;20075;-68
2022/04/15 10:12:16;;;;;;;3.53;1.88;;;16.90;59.80;;;;;;5053187;28;20051;-68
2022/04/15 10:14:44;;;;;;;3.97;2.15;;;17.00;59.60;;;;;;5053626;28;20439;-69
2022/04/15 10:17:12;;;;;;;2.88;1.92;;;16.40;59.30;;;;;;5052498;28;20053;-68
2022/04/15 10:19:39;;;;;;;4.20;2.10;;;;;;;;;;5053243;28;20517;-69
2022/04/15 10:22:06;;;;;;;3.35;1.98;;;16.30;59.40;;;;;;5045333;28;20056;-68
2022/04/15 10:24:33;;;;;;;3.45;2.40;;;16.90;59.90;;;;;;5033441;28;20057;-68
2022/04/15 10:27:00;;;;;;;2.88;1.90;;;16.70;59.50;;;;;;5032279;28;20080;-69
2022/04/15 10:29:26;;;;;;;3.97;1.92;;;16.80;59.70;;;;;;5032033;28;20053;-68
2022/04/15 10:31:54;;;;;;;4.00;2.20;;;16.90;59.90;;;;;;5032915;28;20052;-68
2022/04/15 10:34:21;;;;;;;2.72;1.90;;;16.90;59.90;;;;;;5031786;28;20682;-68
2022/04/15 10:36:49;;;;;;;3.55;2.47;;;16.60;59.60;;;;;;5047878;28;20057;-68
2022/04/15 10:39:18;;;;;;;3.60;2.00;;;16.20;53.80;;;;;;5052999;28;20132;-69
2022/04/15 10:41:58;;;;;;;4.88;3.17;;;16.30;58.90;;;;;;5045855;28;20085;-69
2022/04/15 10:44:26;;;;;;;6.95;3.38;;;17.80;59.80;;;;;;5033384;28;20055;-71
2022/04/15 10:46:53;;;;;;;5.28;2.90;;;16.80;59.10;;;;;;5030098;28;20053;-70
2022/04/15 10:49:23;;;;;;;3.90;2.85;;;16.10;56.90;;;;;;5031442;28;20049;-70
2022/04/15 10:51:51;;;;;;;5.80;2.50;;;16.80;53.50;;;;;;5030602;28;20061;-68
2022/04/15 10:54:40;;;;;;;3.90;2.30;;;16.80;59.20;;;;;;5043886;28;20048;-70
2022/04/15 10:57:10;;;;;;;8.68;2.33;;;16.40;59.40;;;;;;5053016;28;20056;-71
2022/04/15 11:02:22;;;;;;;3.83;2.50;;;16.80;59.40;;;;;;5051135;28;20416;-70
2022/04/15 11:04:51;;;;;;;3.00;2.30;;;16.90;59.50;;;;;;5037090;28;20052;-70
2022/04/15 11:07:26;;;;;;;4.10;2.22;;;16.30;59.00;;;;;;5031626;28;20053;-71
2022/04/15 11:09:53;;;;;;;6.03;2.35;;;17.50;59.10;;;;;;5031063;28;20057;-71
2022/04/15 11:12:30;;;;;;;4.43;2.50;;;15.90;58.70;;;;;;5035967;28;20144;-71
2022/04/15 11:14:56;;;;;;;5.47;2.17;;;16.90;59.30;;;;;;5043309;28;20544;-70
2022/04/15 11:17:37;;;;;;;4.25;2.25;;;16.90;59.20;;;;;;5052022;28;20119;-71
2022/04/15 11:20:07;;;;;;;3.55;2.20;;;17.80;60.00;;;;;;5052525;28;20056;-70
2022/04/15 11:22:37;;;;;;;4.80;1.95;;;16.80;59.50;;;;;;5048051;28;20125;-71
2022/04/15 11:25:04;;;;;;;5.00;2.10;;;17.20;59.90;;;;;;5033861;28;20143;-71
2022/04/15 11:27:31;;;;;;;4.05;1.60;;;;;;;;;;5039320;28;20088;-70
2022/04/15 11:29:58;;;;;;;3.10;1.90;;;17.10;60.10;;;;;;5040463;28;20470;-71
2022/04/15 11:32:25;;;;;;;2.85;1.80;;;17.10;60.10;;;;;;5031113;28;20670;-71
2022/04/15 11:34:55;;;;;;;4.28;2.00;;;17.10;56.00;;;;;;5030782;28;20056;-70
2022/04/15 11:37:24;;;;;;;2.90;2.00;;;17.10;60.20;;;;;;5030993;28;20508;-71
2022/04/15 11:39:51;;;;;;;4.43;1.88;;;17.00;59.90;;;;;;5033066;28;20046;-71
2022/04/15 11:42:17;;;;;;;3.72;1.73;;;17.10;60.30;;;;;;5042419;28;20046;-71
2022/04/15 11:44:44;;;;;;;3.20;1.90;;;17.90;60.40;;;;;;5051799;28;20049;-71
2022/04/15 11:47:18;;;;;;;2.50;1.98;;;17.10;60.00;;;;;;5041303;28;20057;-71
2022/04/15 11:49:45;;;;;;;2.45;1.80;;;18.10;60.30;;;;;;5042529;28;20485;-70
2022/04/15 11:52:19;;;;;;;2.55;1.80;;;17.40;60.20;;;;;;5041277;28;20141;-71
2022/04/15 11:54:48;;;;;;;3.83;1.90;;;17.30;60.10;;;;;;5048562;28;20087;-71
2022/04/15 11:57:14;;;;;;;4.80;2.00;;;17.50;59.90;;;;;;5047740;28;20045;-71
2022/04/15 11:59:42;;;;;;;2.50;1.80;;;17.30;54.90;;;;;;5047283;28;20055;-71
2022/04/15 12:02:09;;;;;;;2.92;1.98;;;17.40;60.00;;;;;;5047942;28;20091;-71
2022/04/15 12:04:36;;;;;;;3.05;1.92;;;18.10;60.30;;;;;;5049831;28;20465;-70
2022/04/15 12:07:03;;;;;;;2.65;1.95;;;17.50;60.20;;;;;;5050230;28;20136;-71
2022/04/15 12:09:30;;;;;;;4.63;1.92;;;;;;;;;;5050370;28;20061;-70
2022/04/15 12:11:58;;;;;;;2.53;1.80;;;17.30;59.70;;;;;;5051998;28;20053;-71
2022/04/15 12:14:36;;;;;;;2.85;1.85;;;17.50;60.00;;;;;;5051262;28;20044;-71
2022/04/15 12:17:04;;;;;;;2.35;1.90;;;16.50;59.40;;;;;;5050783;28;20060;-71
2022/04/15 12:19:30;;;;;;;5.90;2.78;;;17.60;60.30;;;;;;5053259;28;20053;-69
2022/04/15 12:22:00;;;;;;;3.25;1.90;;;16.60;59.50;;;;;;5051717;28;20052;-70
2022/04/15 12:24:30;;;;;;;4.63;2.10;;;17.40;59.90;;;;;;5054637;28;20064;-71
2022/04/15 12:27:00;;;;;;;2.60;2.13;;;17.90;60.10;;;;;;5043266;28;20045;-71
2022/04/15 12:32:15;;;;;;;3.83;2.00;;;17.50;59.80;;;;;;5034477;28;20057;-70
2022/04/15 12:34:42;;;;;;;3.13;2.20;;;17.70;60.00;;;;;;5035495;28;20045;-71
2022/04/15 12:37:24;;;;;;;2.90;2.13;;;17.50;54.30;;;;;;5034513;28;20061;-70
2022/04/15 12:39:54;;;;;;;2.55;2.05;;;18.00;60.30;;;;;;5036822;28;20053;-71
2022/04/15 12:42:29;;;;;;;2.92;2.13;;;18.00;60.00;;;;;;5054033;28;20060;-70
2022/04/15 12:44:55;;;;;;;3.53;2.20;;;17.60;59.70;;;;;;5054024;28;20056;-70
2022/04/15 12:47:25;;;;;;;2.38;2.17;;;17.10;59.80;;;;;;5054543;28;20409;-69
2022/04/15 12:49:51;;;;;;;3.88;2.45;;;17.80;60.00;;;;;;5053853;28;20060;-70
2022/04/15 12:52:19;;;;;;;3.15;2.10;;;17.60;59.90;;;;;;5055054;28;20127;-70
2022/04/15 12:54:58;;;;;;;3.90;2.30;;;17.60;56.20;;;;;;5055105;28;20045;-70
2022/04/15 12:57:31;;;;;;;5.07;2.40;;;17.60;54.20;;;;;;5044196;28;20055;-70
2022/04/15 12:59:58;;;;;;;3.50;2.10;;;17.50;59.70;;;;;;5033653;28;20064;-71
2022/04/15 13:02:24;;;;;;;5.32;2.35;;;18.30;60.20;;;;;;5033590;28;20413;-71